sensor_id;sensor_type;location;lat;lon;timestamp;temperature;humidity
2543;DHT22;1116;51.502;7.414;2024-01-06T00:01:20;8.00;99.90
2543;DHT22;1116;51.502;7.414;2024-01-06T00:03:50;8.10;99.90
2543;DHT22;1116;51.502;7.414;2024-01-06T00:06:20;8.10;99.90
2543;DHT22;1116;51.502;7.414;2024-01-06T00:08:51;8.10;99.90
2543;DHT22;1116;51.502;7.414;2024-01-06T00:11:31;8.10;99.90
2543;DHT22;1116;51.502;7.414;2024-01-06T00:14:01;8.10;99.90
2543;DHT22;1116;51.502;7.414;2024-01-06T00:16:31;8.20;99.90
2543;DHT22;1116;51.502;7.414;2024-01-06T00:19:00;8.20;99.90
2543;DHT22;1116;51.502;7.414;2024-01-06T00:21:33;8.30;99.90
2543;DHT22;1116;51.502;7.414;2024-01-06T00:24:03;8.20;99.90
2543;DHT22;1116;51.502;7.414;2024-01-06T00:26:36;8.20;99.90
2543;DHT22;1116;51.502;7.414;2024-01-06T00:29:06;8.30;99.90
2543;DHT22;1116;51.502;7.414;2024-01-06T00:31:37;8.30;99.90
2543;DHT22;1116;51.502;7.414;2024-01-06T00:34:07;8.20;99.90
2543;DHT22;1116;51.502;7.414;2024-01-06T00:36:37;8.20;99.90
2543;DHT22;1116;51.502;7.414;2024-01-06T00:39:07;8.30;99.90
2543;DHT22;1116;51.502;7.414;2024-01-06T00:41:40;8.40;99.90
2543;DHT22;1116;51.502;7.414;2024-01-06T00:44:10;8.10;99.90
2543;DHT22;1116;51.502;7.414;2024-01-06T00:46:40;8.10;99.90
2543;DHT22;1116;51.502;7.414;2024-01-06T00:49:10;8.10;99.90
2543;DHT22;1116;51.502;7.414;2024-01-06T00:51:40;8.10;99.90
2543;DHT22;1116;51.502;7.414;2024-01-06T00:54:10;8.20;99.90
2543;DHT22;1116;51.502;7.414;2024-01-06T00:56:42;8.20;99.90
2543;DHT22;1116;51.502;7.414;2024-01-06T00:59:12;8.20;99.90
2543;DHT22;1116;51.502;7.414;2024-01-06T01:01:42;8.20;99.90
2543;DHT22;1116;51.502;7.414;2024-01-06T01:04:12;8.20;99.90
2543;DHT22;1116;51.502;7.414;2024-01-06T01:06:42;8.20;99.90
2543;DHT22;1116;51.502;7.414;2024-01-06T01:09:12;8.20;99.90
2543;DHT22;1116;51.502;7.414;2024-01-06T01:11:44;8.30;99.90
2543;DHT22;1116;51.502;7.414;2024-01-06T01:14:14;8.30;99.90
2543;DHT22;1116;51.502;7.414;2024-01-06T01:16:45;8.30;99.90
2543;DHT22;1116;51.502;7.414;2024-01-06T01:19:15;8.30;99.90
2543;DHT22;1116;51.502;7.414;2024-01-06T01:21:45;8.30;99.90
2543;DHT22;1116;51.502;7.414;2024-01-06T01:24:15;8.30;99.90
2543;DHT22;1116;51.502;7.414;2024-01-06T01:26:48;8.30;99.90
2543;DHT22;1116;51.502;7.414;2024-01-06T01:29:17;8.30;99.90
2543;DHT22;1116;51.502;7.414;2024-01-06T01:31:47;8.30;99.90
2543;DHT22;1116;51.502;7.414;2024-01-06T01:34:17;8.30;99.90
2543;DHT22;1116;51.502;7.414;2024-01-06T01:36:48;8.20;99.90
2543;DHT22;1116;51.502;7.414;2024-01-06T01:39:18;8.20;99.90
2543;DHT22;1116;51.502;7.414;2024-01-06T01:41:50;8.30;99.90
2543;DHT22;1116;51.502;7.414;2024-01-06T01:44:20;8.20;99.90
2543;DHT22;1116;51.502;7.414;2024-01-06T01:46:50;8.30;99.90
2543;DHT22;1116;51.502;7.414;2024-01-06T01:49:20;8.30;99.90
2543;DHT22;1116;51.502;7.414;2024-01-06T01:51:50;8.20;99.90
2543;DHT22;1116;51.502;7.414;2024-01-06T01:54:20;8.30;99.90
2543;DHT22;1116;51.502;7.414;2024-01-06T01:56:53;8.30;99.90
2543;DHT22;1116;51.502;7.414;2024-01-06T01:59:23;8.20;99.90
2543;DHT22;1116;51.502;7.414;2024-01-06T02:01:54;8.30;99.90
2543;DHT22;1116;51.502;7.414;2024-01-06T02:04:24;8.20;99.90
2543;DHT22;1116;51.502;7.414;2024-01-06T02:06:53;8.30;99.90
2543;DHT22;1116;51.502;7.414;2024-01-06T02:09:24;8.30;99.90
2543;DHT22;1116;51.502;7.414;2024-01-06T02:11:59;8.30;99.90
2543;DHT22;1116;51.502;7.414;2024-01-06T02:14:29;8.30;99.90
2543;DHT22;1116;51.502;7.414;2024-01-06T02:16:59;8.30;99.90
2543;DHT22;1116;51.502;7.414;2024-01-06T02:19:29;8.30;99.90
2543;DHT22;1116;51.502;7.414;2024-01-06T02:22:02;8.30;99.90
2543;DHT22;1116;51.502;7.414;2024-01-06T02:24:34;8.40;99.90
2543;DHT22;1116;51.502;7.414;2024-01-06T02:27:04;8.40;99.90
2543;DHT22;1116;51.502;7.414;2024-01-06T02:29:34;8.50;99.90
2543;DHT22;1116;51.502;7.414;2024-01-06T02:32:07;8.50;99.90
2543;DHT22;1116;51.502;7.414;2024-01-06T02:34:37;8.50;99.90
2543;DHT22;1116;51.502;7.414;2024-01-06T02:37:10;8.40;99.90
2543;DHT22;1116;51.502;7.414;2024-01-06T02:39:40;8.40;99.90
2543;DHT22;1116;51.502;7.414;2024-01-06T02:42:10;8.40;99.90
2543;DHT22;1116;51.502;7.414;2024-01-06T02:44:39;8.40;99.90
2543;DHT22;1116;51.502;7.414;2024-01-06T02:47:09;8.30;99.90
2543;DHT22;1116;51.502;7.414;2024-01-06T02:49:39;8.30;99.90
2543;DHT22;1116;51.502;7.414;2024-01-06T02:52:12;8.30;99.90
2543;DHT22;1116;51.502;7.414;2024-01-06T02:54:41;8.30;99.90
2543;DHT22;1116;51.502;7.414;2024-01-06T02:57:11;8.20;99.90
2543;DHT22;1116;51.502;7.414;2024-01-06T02:59:41;8.20;99.90
2543;DHT22;1116;51.502;7.414;2024-01-06T03:02:11;8.30;99.90
2543;DHT22;1116;51.502;7.414;2024-01-06T03:04:41;8.30;99.90
2543;DHT22;1116;51.502;7.414;2024-01-06T03:07:14;8.30;99.90
2543;DHT22;1116;51.502;7.414;2024-01-06T03:09:44;8.30;99.90
2543;DHT22;1116;51.502;7.414;2024-01-06T03:12:15;8.30;99.90
2543;DHT22;1116;51.502;7.414;2024-01-06T03:14:45;8.30;99.90
2543;DHT22;1116;51.502;7.414;2024-01-06T03:17:15;8.30;99.90
2543;DHT22;1116;51.502;7.414;2024-01-06T03:19:45;8.30;99.90
2543;DHT22;1116;51.502;7.414;2024-01-06T03:22:18;8.30;99.90
2543;DHT22;1116;51.502;7.414;2024-01-06T03:24:48;8.30;99.90
2543;DHT22;1116;51.502;7.414;2024-01-06T03:27:22;8.10;99.90
2543;DHT22;1116;51.502;7.414;2024-01-06T03:29:53;7.70;99.90
2543;DHT22;1116;51.502;7.414;2024-01-06T03:32:23;8.10;99.90
2543;DHT22;1116;51.502;7.414;2024-01-06T03:34:55;8.10;99.90
2543;DHT22;1116;51.502;7.414;2024-01-06T03:37:27;8.10;99.90
2543;DHT22;1116;51.502;7.414;2024-01-06T03:40:05;8.10;99.90
2543;DHT22;1116;51.502;7.414;2024-01-06T03:42:35;8.10;99.90
2543;DHT22;1116;51.502;7.414;2024-01-06T03:45:07;8.10;99.90
2543;DHT22;1116;51.502;7.414;2024-01-06T03:47:37;8.10;99.90
2543;DHT22;1116;51.502;7.414;2024-01-06T03:50:08;8.10;99.90
2543;DHT22;1116;51.502;7.414;2024-01-06T03:52:41;8.00;99.90
2543;DHT22;1116;51.502;7.414;2024-01-06T03:55:14;8.00;99.90
2543;DHT22;1116;51.502;7.414;2024-01-06T03:57:44;8.50;99.90
2543;DHT22;1116;51.502;7.414;2024-01-06T04:00:15;8.10;99.90
2543;DHT22;1116;51.502;7.414;2024-01-06T04:02:46;8.10;99.90
2543;DHT22;1116;51.502;7.414;2024-01-06T04:05:17;8.00;99.90
2543;DHT22;1116;51.502;7.414;2024-01-06T04:07:49;8.00;99.90
2543;DHT22;1116;51.502;7.414;2024-01-06T04:10:19;8.00;99.90
2543;DHT22;1116;51.502;7.414;2024-01-06T04:12:49;8.00;99.90
2543;DHT22;1116;51.502;7.414;2024-01-06T04:15:19;8.00;99.90
2543;DHT22;1116;51.502;7.414;2024-01-06T04:17:49;7.90;99.90
2543;DHT22;1116;51.502;7.414;2024-01-06T04:20:19;7.90;99.90
2543;DHT22;1116;51.502;7.414;2024-01-06T04:22:58;7.90;99.90
2543;DHT22;1116;51.502;7.414;2024-01-06T04:25:28;7.80;99.90
2543;DHT22;1116;51.502;7.414;2024-01-06T04:27:57;7.70;99.90
2543;DHT22;1116;51.502;7.414;2024-01-06T04:30:27;7.70;99.90
2543;DHT22;1116;51.502;7.414;2024-01-06T04:32:57;7.70;99.90
2543;DHT22;1116;51.502;7.414;2024-01-06T04:35:29;7.60;99.90
2543;DHT22;1116;51.502;7.414;2024-01-06T04:38:02;7.50;99.90
2543;DHT22;1116;51.502;7.414;2024-01-06T04:40:31;7.50;99.90
2543;DHT22;1116;51.502;7.414;2024-01-06T04:43:02;7.40;99.90
2543;DHT22;1116;51.502;7.414;2024-01-06T04:45:32;7.30;99.90
2543;DHT22;1116;51.502;7.414;2024-01-06T04:48:07;7.30;99.90
2543;DHT22;1116;51.502;7.414;2024-01-06T04:50:37;7.20;99.90
2543;DHT22;1116;51.502;7.414;2024-01-06T04:53:10;7.10;99.90
2543;DHT22;1116;51.502;7.414;2024-01-06T04:55:39;7.20;99.90
2543;DHT22;1116;51.502;7.414;2024-01-06T04:58:14;7.10;99.90
2543;DHT22;1116;51.502;7.414;2024-01-06T05:00:44;7.10;99.90
2543;DHT22;1116;51.502;7.414;2024-01-06T05:03:14;7.10;99.90
2543;DHT22;1116;51.502;7.414;2024-01-06T05:05:43;7.10;99.90
2543;DHT22;1116;51.502;7.414;2024-01-06T05:08:16;7.10;99.90
2543;DHT22;1116;51.502;7.414;2024-01-06T05:10:47;7.20;99.90
2543;DHT22;1116;51.502;7.414;2024-01-06T05:13:18;7.10;99.90
2543;DHT22;1116;51.502;7.414;2024-01-06T05:15:48;7.10;99.90
2543;DHT22;1116;51.502;7.414;2024-01-06T05:18:18;7.10;99.90
2543;DHT22;1116;51.502;7.414;2024-01-06T05:20:48;7.20;99.90
2543;DHT22;1116;51.502;7.414;2024-01-06T05:23:20;7.20;99.90
2543;DHT22;1116;51.502;7.414;2024-01-06T05:25:50;7.20;99.90
2543;DHT22;1116;51.502;7.414;2024-01-06T05:28:23;7.20;99.90
2543;DHT22;1116;51.502;7.414;2024-01-06T05:30:53;7.20;99.90
2543;DHT22;1116;51.502;7.414;2024-01-06T05:33:23;7.30;99.90
2543;DHT22;1116;51.502;7.414;2024-01-06T05:35:53;7.30;99.90
2543;DHT22;1116;51.502;7.414;2024-01-06T05:38:25;7.30;99.90
2543;DHT22;1116;51.502;7.414;2024-01-06T05:40:56;7.30;99.90
2543;DHT22;1116;51.502;7.414;2024-01-06T05:43:26;7.30;99.90
2543;DHT22;1116;51.502;7.414;2024-01-06T05:45:55;7.30;96.80
2543;DHT22;1116;51.502;7.414;2024-01-06T05:48:26;7.20;98.30
2543;DHT22;1116;51.502;7.414;2024-01-06T05:50:57;7.20;96.20
2543;DHT22;1116;51.502;7.414;2024-01-06T05:53:29;7.20;96.00
2543;DHT22;1116;51.502;7.414;2024-01-06T05:55:59;7.20;95.00
2543;DHT22;1116;51.502;7.414;2024-01-06T05:58:29;7.30;96.70
2543;DHT22;1116;51.502;7.414;2024-01-06T06:00:59;7.30;97.70
2543;DHT22;1116;51.502;7.414;2024-01-06T06:03:31;7.30;95.30
2543;DHT22;1116;51.502;7.414;2024-01-06T06:06:01;7.30;95.40
2543;DHT22;1116;51.502;7.414;2024-01-06T06:08:34;7.40;94.70
2543;DHT22;1116;51.502;7.414;2024-01-06T06:11:14;7.30;94.30
2543;DHT22;1116;51.502;7.414;2024-01-06T06:13:45;7.30;94.30
2543;DHT22;1116;51.502;7.414;2024-01-06T06:16:15;7.30;94.30
2543;DHT22;1116;51.502;7.414;2024-01-06T06:18:45;7.70;91.80
2543;DHT22;1116;51.502;7.414;2024-01-06T06:21:15;7.70;92.40
2543;DHT22;1116;51.502;7.414;2024-01-06T06:23:48;7.30;91.60
2543;DHT22;1116;51.502;7.414;2024-01-06T06:26:18;7.20;91.00
2543;DHT22;1116;51.502;7.414;2024-01-06T06:28:48;7.20;91.20
2543;DHT22;1116;51.502;7.414;2024-01-06T06:31:18;7.20;91.20
2543;DHT22;1116;51.502;7.414;2024-01-06T06:33:48;7.20;91.10
2543;DHT22;1116;51.502;7.414;2024-01-06T06:36:18;7.10;89.20
2543;DHT22;1116;51.502;7.414;2024-01-06T06:38:51;7.10;90.10
2543;DHT22;1116;51.502;7.414;2024-01-06T06:41:21;7.10;91.30
2543;DHT22;1116;51.502;7.414;2024-01-06T06:43:51;7.10;91.20
2543;DHT22;1116;51.502;7.414;2024-01-06T06:46:21;7.00;92.60
2543;DHT22;1116;51.502;7.414;2024-01-06T06:48:51;7.10;92.30
2543;DHT22;1116;51.502;7.414;2024-01-06T06:51:26;7.00;90.60
2543;DHT22;1116;51.502;7.414;2024-01-06T06:54:00;6.90;91.20
2543;DHT22;1116;51.502;7.414;2024-01-06T06:56:29;7.00;92.70
2543;DHT22;1116;51.502;7.414;2024-01-06T06:58:59;7.10;91.30
2543;DHT22;1116;51.502;7.414;2024-01-06T07:01:29;7.00;92.30
2543;DHT22;1116;51.502;7.414;2024-01-06T07:04:00;7.00;91.70
2543;DHT22;1116;51.502;7.414;2024-01-06T07:06:30;7.00;92.40
2543;DHT22;1116;51.502;7.414;2024-01-06T07:09:03;6.90;91.00
2543;DHT22;1116;51.502;7.414;2024-01-06T07:11:33;6.80;93.40
2543;DHT22;1116;51.502;7.414;2024-01-06T07:14:04;6.80;93.50
2543;DHT22;1116;51.502;7.414;2024-01-06T07:16:34;7.00;93.70
2543;DHT22;1116;51.502;7.414;2024-01-06T07:19:06;6.70;94.50
2543;DHT22;1116;51.502;7.414;2024-01-06T07:21:36;6.70;93.30
2543;DHT22;1116;51.502;7.414;2024-01-06T07:24:09;6.80;93.10
2543;DHT22;1116;51.502;7.414;2024-01-06T07:26:39;6.80;94.10
2543;DHT22;1116;51.502;7.414;2024-01-06T07:29:09;6.80;93.50
2543;DHT22;1116;51.502;7.414;2024-01-06T07:31:39;6.80;92.40
2543;DHT22;1116;51.502;7.414;2024-01-06T07:34:14;6.80;92.00
2543;DHT22;1116;51.502;7.414;2024-01-06T07:36:44;6.70;91.10
2543;DHT22;1116;51.502;7.414;2024-01-06T07:39:17;6.70;90.50
2543;DHT22;1116;51.502;7.414;2024-01-06T07:41:48;6.70;91.30
2543;DHT22;1116;51.502;7.414;2024-01-06T07:44:18;6.60;91.70
2543;DHT22;1116;51.502;7.414;2024-01-06T07:46:52;6.60;92.00
2543;DHT22;1116;51.502;7.414;2024-01-06T07:49:22;6.60;91.60
2543;DHT22;1116;51.502;7.414;2024-01-06T07:51:52;6.60;91.40
2543;DHT22;1116;51.502;7.414;2024-01-06T07:54:24;6.60;91.80
2543;DHT22;1116;51.502;7.414;2024-01-06T07:56:54;6.60;92.80
2543;DHT22;1116;51.502;7.414;2024-01-06T07:59:24;6.60;93.20
2543;DHT22;1116;51.502;7.414;2024-01-06T08:01:54;6.60;94.10
2543;DHT22;1116;51.502;7.414;2024-01-06T08:04:25;6.60;92.90
2543;DHT22;1116;51.502;7.414;2024-01-06T08:06:55;7.00;94.90
2543;DHT22;1116;51.502;7.414;2024-01-06T08:09:27;6.60;95.40
2543;DHT22;1116;51.502;7.414;2024-01-06T08:11:57;7.10;94.30
2543;DHT22;1116;51.502;7.414;2024-01-06T08:14:27;6.50;94.80
2543;DHT22;1116;51.502;7.414;2024-01-06T08:16:57;6.30;96.20
2543;DHT22;1116;51.502;7.414;2024-01-06T08:19:27;6.20;99.90
2543;DHT22;1116;51.502;7.414;2024-01-06T08:21:58;6.20;99.90
2543;DHT22;1116;51.502;7.414;2024-01-06T08:24:31;6.10;99.90
2543;DHT22;1116;51.502;7.414;2024-01-06T08:27:01;6.10;99.90
2543;DHT22;1116;51.502;7.414;2024-01-06T08:29:31;6.10;99.90
2543;DHT22;1116;51.502;7.414;2024-01-06T08:32:05;6.10;99.90
2543;DHT22;1116;51.502;7.414;2024-01-06T08:34:35;6.10;99.90
2543;DHT22;1116;51.502;7.414;2024-01-06T08:37:05;6.00;99.90
2543;DHT22;1116;51.502;7.414;2024-01-06T08:39:37;6.00;99.90
2543;DHT22;1116;51.502;7.414;2024-01-06T08:42:08;6.00;99.90
2543;DHT22;1116;51.502;7.414;2024-01-06T08:44:38;6.00;99.90
2543;DHT22;1116;51.502;7.414;2024-01-06T08:47:08;5.90;99.90
2543;DHT22;1116;51.502;7.414;2024-01-06T08:49:38;5.90;99.90
2543;DHT22;1116;51.502;7.414;2024-01-06T08:52:08;6.00;99.90
2543;DHT22;1116;51.502;7.414;2024-01-06T08:54:40;6.10;99.90
2543;DHT22;1116;51.502;7.414;2024-01-06T08:57:10;6.00;99.90
2543;DHT22;1116;51.502;7.414;2024-01-06T08:59:40;6.00;99.90
2543;DHT22;1116;51.502;7.414;2024-01-06T09:02:12;5.90;99.90
2543;DHT22;1116;51.502;7.414;2024-01-06T09:04:42;6.00;99.90
2543;DHT22;1116;51.502;7.414;2024-01-06T09:07:12;5.90;99.90
2543;DHT22;1116;51.502;7.414;2024-01-06T09:09:41;6.00;99.90
2543;DHT22;1116;51.502;7.414;2024-01-06T09:12:11;6.10;99.90
2543;DHT22;1116;51.502;7.414;2024-01-06T09:14:41;6.10;99.90
2543;DHT22;1116;51.502;7.414;2024-01-06T09:17:11;6.00;99.50
2543;DHT22;1116;51.502;7.414;2024-01-06T09:19:41;6.00;98.00
2543;DHT22;1116;51.502;7.414;2024-01-06T09:22:11;6.00;93.10
2543;DHT22;1116;51.502;7.414;2024-01-06T09:24:44;6.00;93.80
2543;DHT22;1116;51.502;7.414;2024-01-06T09:27:14;6.00;93.70
2543;DHT22;1116;51.502;7.414;2024-01-06T09:29:44;6.00;93.50
2543;DHT22;1116;51.502;7.414;2024-01-06T09:32:14;6.00;92.60
2543;DHT22;1116;51.502;7.414;2024-01-06T09:34:44;5.90;92.50
2543;DHT22;1116;51.502;7.414;2024-01-06T09:37:14;5.90;92.20
2543;DHT22;1116;51.502;7.414;2024-01-06T09:39:46;6.00;93.30
2543;DHT22;1116;51.502;7.414;2024-01-06T09:42:16;6.00;90.00
2543;DHT22;1116;51.502;7.414;2024-01-06T09:44:47;5.90;89.30
2543;DHT22;1116;51.502;7.414;2024-01-06T09:47:18;6.00;89.20
2543;DHT22;1116;51.502;7.414;2024-01-06T09:49:49;6.00;88.90
2543;DHT22;1116;51.502;7.414;2024-01-06T09:52:22;6.00;89.30
2543;DHT22;1116;51.502;7.414;2024-01-06T09:54:54;6.10;87.80
2543;DHT22;1116;51.502;7.414;2024-01-06T09:57:25;6.10;86.80
2543;DHT22;1116;51.502;7.414;2024-01-06T09:59:56;6.10;84.20
2543;DHT22;1116;51.502;7.414;2024-01-06T10:02:26;6.00;84.50
2543;DHT22;1116;51.502;7.414;2024-01-06T10:04:58;6.00;84.50
2543;DHT22;1116;51.502;7.414;2024-01-06T10:07:28;5.90;87.70
2543;DHT22;1116;51.502;7.414;2024-01-06T10:10:01;5.90;86.80
2543;DHT22;1116;51.502;7.414;2024-01-06T10:12:33;5.90;88.10
2543;DHT22;1116;51.502;7.414;2024-01-06T10:15:08;5.90;86.60
2543;DHT22;1116;51.502;7.414;2024-01-06T10:17:38;5.90;86.70
2543;DHT22;1116;51.502;7.414;2024-01-06T10:20:10;5.80;84.30
2543;DHT22;1116;51.502;7.414;2024-01-06T10:22:41;5.90;86.20
2543;DHT22;1116;51.502;7.414;2024-01-06T10:25:14;5.90;83.90
2543;DHT22;1116;51.502;7.414;2024-01-06T10:27:44;5.90;84.40
2543;DHT22;1116;51.502;7.414;2024-01-06T10:30:14;5.90;83.90
2543;DHT22;1116;51.502;7.414;2024-01-06T10:32:45;5.90;83.60
2543;DHT22;1116;51.502;7.414;2024-01-06T10:35:16;5.90;85.30
2543;DHT22;1116;51.502;7.414;2024-01-06T10:37:47;5.90;84.50
2543;DHT22;1116;51.502;7.414;2024-01-06T10:40:20;5.90;86.80
2543;DHT22;1116;51.502;7.414;2024-01-06T10:42:50;6.00;85.60
2543;DHT22;1116;51.502;7.414;2024-01-06T10:45:20;5.90;82.10
2543;DHT22;1116;51.502;7.414;2024-01-06T10:47:50;5.80;84.30
2543;DHT22;1116;51.502;7.414;2024-01-06T10:50:20;5.80;87.60
2543;DHT22;1116;51.502;7.414;2024-01-06T10:52:52;5.80;89.10
2543;DHT22;1116;51.502;7.414;2024-01-06T10:55:26;5.90;90.10
2543;DHT22;1116;51.502;7.414;2024-01-06T10:57:59;5.90;85.60
2543;DHT22;1116;51.502;7.414;2024-01-06T11:00:30;6.00;84.60
2543;DHT22;1116;51.502;7.414;2024-01-06T11:03:01;5.60;87.90
2543;DHT22;1116;51.502;7.414;2024-01-06T11:05:32;5.60;93.90
2543;DHT22;1116;51.502;7.414;2024-01-06T11:08:03;5.60;94.80
2543;DHT22;1116;51.502;7.414;2024-01-06T11:10:37;5.60;94.70
2543;DHT22;1116;51.502;7.414;2024-01-06T11:13:11;5.60;95.50
2543;DHT22;1116;51.502;7.414;2024-01-06T11:15:44;5.60;95.80
2543;DHT22;1116;51.502;7.414;2024-01-06T11:18:44;5.60;97.10
2543;DHT22;1116;51.502;7.414;2024-01-06T11:21:19;5.70;96.30
2543;DHT22;1116;51.502;7.414;2024-01-06T11:24:11;5.70;94.10
2543;DHT22;1116;51.502;7.414;2024-01-06T11:26:49;5.60;94.70
2543;DHT22;1116;51.502;7.414;2024-01-06T11:29:20;5.60;96.30
2543;DHT22;1116;51.502;7.414;2024-01-06T11:32:24;5.70;97.80
2543;DHT22;1116;51.502;7.414;2024-01-06T11:34:55;5.70;96.30
2543;DHT22;1116;51.502;7.414;2024-01-06T11:37:36;5.70;95.90
2543;DHT22;1116;51.502;7.414;2024-01-06T11:40:09;5.70;96.90
2543;DHT22;1116;51.502;7.414;2024-01-06T11:42:45;5.80;95.80
2543;DHT22;1116;51.502;7.414;2024-01-06T11:45:15;5.80;93.80
2543;DHT22;1116;51.502;7.414;2024-01-06T11:47:48;5.70;93.70
2543;DHT22;1116;51.502;7.414;2024-01-06T11:50:18;5.60;95.70
2543;DHT22;1116;51.502;7.414;2024-01-06T11:52:48;5.60;96.40
2543;DHT22;1116;51.502;7.414;2024-01-06T11:55:18;5.60;97.50
2543;DHT22;1116;51.502;7.414;2024-01-06T11:57:51;5.60;94.80
2543;DHT22;1116;51.502;7.414;2024-01-06T12:00:21;5.50;97.70
2543;DHT22;1116;51.502;7.414;2024-01-06T12:02:56;5.40;99.90
2543;DHT22;1116;51.502;7.414;2024-01-06T12:05:31;5.40;99.90
2543;DHT22;1116;51.502;7.414;2024-01-06T12:08:04;5.20;99.90
2543;DHT22;1116;51.502;7.414;2024-01-06T12:10:35;5.10;99.90
2543;DHT22;1116;51.502;7.414;2024-01-06T12:13:08;5.10;99.90
2543;DHT22;1116;51.502;7.414;2024-01-06T12:15:40;5.20;99.90
2543;DHT22;1116;51.502;7.414;2024-01-06T12:18:10;5.40;99.90
2543;DHT22;1116;51.502;7.414;2024-01-06T12:20:44;5.40;99.90
2543;DHT22;1116;51.502;7.414;2024-01-06T12:23:23;5.40;99.90
2543;DHT22;1116;51.502;7.414;2024-01-06T12:25:55;5.50;99.90
2543;DHT22;1116;51.502;7.414;2024-01-06T12:28:27;5.50;99.90
2543;DHT22;1116;51.502;7.414;2024-01-06T12:30:57;5.40;99.90
2543;DHT22;1116;51.502;7.414;2024-01-06T12:33:28;5.40;99.90
2543;DHT22;1116;51.502;7.414;2024-01-06T12:35:59;5.40;99.90
2543;DHT22;1116;51.502;7.414;2024-01-06T12:38:42;5.50;99.90
2543;DHT22;1116;51.502;7.414;2024-01-06T12:41:13;5.30;99.90
2543;DHT22;1116;51.502;7.414;2024-01-06T12:43:45;5.40;99.90
2543;DHT22;1116;51.502;7.414;2024-01-06T12:46:15;5.40;99.90
2543;DHT22;1116;51.502;7.414;2024-01-06T12:48:45;5.30;99.90
2543;DHT22;1116;51.502;7.414;2024-01-06T12:51:15;5.30;99.90
2543;DHT22;1116;51.502;7.414;2024-01-06T12:53:45;5.40;99.90
2543;DHT22;1116;51.502;7.414;2024-01-06T12:56:15;5.30;99.90
2543;DHT22;1116;51.502;7.414;2024-01-06T12:58:48;5.30;99.90
2543;DHT22;1116;51.502;7.414;2024-01-06T13:01:18;5.30;99.90
2543;DHT22;1116;51.502;7.414;2024-01-06T13:03:48;5.20;99.90
2543;DHT22;1116;51.502;7.414;2024-01-06T13:06:18;5.20;99.90
2543;DHT22;1116;51.502;7.414;2024-01-06T13:08:51;5.20;99.90
2543;DHT22;1116;51.502;7.414;2024-01-06T13:11:21;5.40;99.90
2543;DHT22;1116;51.502;7.414;2024-01-06T13:13:54;5.30;99.90
2543;DHT22;1116;51.502;7.414;2024-01-06T13:16:24;5.30;99.90
2543;DHT22;1116;51.502;7.414;2024-01-06T13:18:54;5.30;99.90
2543;DHT22;1116;51.502;7.414;2024-01-06T13:21:24;5.10;99.90
2543;DHT22;1116;51.502;7.414;2024-01-06T13:23:55;5.10;99.90
2543;DHT22;1116;51.502;7.414;2024-01-06T13:26:28;5.10;99.90
2543;DHT22;1116;51.502;7.414;2024-01-06T13:29:00;5.20;99.90
2543;DHT22;1116;51.502;7.414;2024-01-06T13:31:31;5.10;99.90
2543;DHT22;1116;51.502;7.414;2024-01-06T13:34:01;5.10;99.90
2543;DHT22;1116;51.502;7.414;2024-01-06T13:36:31;5.10;99.90
2543;DHT22;1116;51.502;7.414;2024-01-06T13:39:01;5.10;99.90
2543;DHT22;1116;51.502;7.414;2024-01-06T13:41:32;5.10;99.90
2543;DHT22;1116;51.502;7.414;2024-01-06T13:44:05;5.10;99.90
2543;DHT22;1116;51.502;7.414;2024-01-06T13:46:32;5.00;99.90
2543;DHT22;1116;51.502;7.414;2024-01-06T13:49:02;5.00;99.90
2543;DHT22;1116;51.502;7.414;2024-01-06T13:51:32;4.90;99.90
2543;DHT22;1116;51.502;7.414;2024-01-06T13:54:03;4.90;99.90
2543;DHT22;1116;51.502;7.414;2024-01-06T13:56:33;5.00;99.90
2543;DHT22;1116;51.502;7.414;2024-01-06T13:59:06;5.00;99.90
2543;DHT22;1116;51.502;7.414;2024-01-06T14:01:36;5.30;99.90
2543;DHT22;1116;51.502;7.414;2024-01-06T14:04:06;4.90;99.90
2543;DHT22;1116;51.502;7.414;2024-01-06T14:06:37;4.90;99.90
2543;DHT22;1116;51.502;7.414;2024-01-06T14:09:07;4.90;99.90
2543;DHT22;1116;51.502;7.414;2024-01-06T14:11:38;4.90;99.90
2543;DHT22;1116;51.502;7.414;2024-01-06T14:14:10;4.80;99.90
2543;DHT22;1116;51.502;7.414;2024-01-06T14:16:40;4.80;99.90
2543;DHT22;1116;51.502;7.414;2024-01-06T14:19:13;4.80;99.90
2543;DHT22;1116;51.502;7.414;2024-01-06T14:21:43;4.80;99.90
2543;DHT22;1116;51.502;7.414;2024-01-06T14:24:13;4.90;99.90
2543;DHT22;1116;51.502;7.414;2024-01-06T14:26:45;4.80;99.90
2543;DHT22;1116;51.502;7.414;2024-01-06T14:29:18;4.70;99.90
2543;DHT22;1116;51.502;7.414;2024-01-06T14:31:48;4.70;99.90
2543;DHT22;1116;51.502;7.414;2024-01-06T14:34:19;4.70;99.90
2543;DHT22;1116;51.502;7.414;2024-01-06T14:36:49;4.60;99.90
2543;DHT22;1116;51.502;7.414;2024-01-06T14:39:22;4.70;99.90
2543;DHT22;1116;51.502;7.414;2024-01-06T14:41:52;4.70;99.90
2543;DHT22;1116;51.502;7.414;2024-01-06T14:44:24;4.70;99.90
2543;DHT22;1116;51.502;7.414;2024-01-06T14:46:56;4.60;99.90
2543;DHT22;1116;51.502;7.414;2024-01-06T14:49:26;4.60;99.90
2543;DHT22;1116;51.502;7.414;2024-01-06T14:51:56;4.60;99.90
2543;DHT22;1116;51.502;7.414;2024-01-06T14:54:26;4.60;99.90
2543;DHT22;1116;51.502;7.414;2024-01-06T14:56:58;4.70;99.90
2543;DHT22;1116;51.502;7.414;2024-01-06T14:59:30;4.70;99.90
2543;DHT22;1116;51.502;7.414;2024-01-06T15:02:03;4.60;99.90
2543;DHT22;1116;51.502;7.414;2024-01-06T15:04:37;4.70;99.90
2543;DHT22;1116;51.502;7.414;2024-01-06T15:07:07;4.70;99.90
2543;DHT22;1116;51.502;7.414;2024-01-06T15:09:38;4.70;99.90
2543;DHT22;1116;51.502;7.414;2024-01-06T15:12:08;4.70;99.90
2543;DHT22;1116;51.502;7.414;2024-01-06T15:14:41;4.70;99.90
2543;DHT22;1116;51.502;7.414;2024-01-06T15:17:11;4.60;99.90
2543;DHT22;1116;51.502;7.414;2024-01-06T15:19:41;4.60;99.90
2543;DHT22;1116;51.502;7.414;2024-01-06T15:22:11;4.60;99.90
2543;DHT22;1116;51.502;7.414;2024-01-06T15:24:41;4.60;99.90
2543;DHT22;1116;51.502;7.414;2024-01-06T15:27:23;4.60;99.90
2543;DHT22;1116;51.502;7.414;2024-01-06T15:29:56;4.50;99.90
2543;DHT22;1116;51.502;7.414;2024-01-06T15:32:28;4.60;99.90
2543;DHT22;1116;51.502;7.414;2024-01-06T15:34:58;4.60;99.90
2543;DHT22;1116;51.502;7.414;2024-01-06T15:37:29;4.60;99.90
2543;DHT22;1116;51.502;7.414;2024-01-06T15:39:59;4.70;99.90
2543;DHT22;1116;51.502;7.414;2024-01-06T15:42:29;4.70;99.90
2543;DHT22;1116;51.502;7.414;2024-01-06T15:45:02;4.60;99.90
2543;DHT22;1116;51.502;7.414;2024-01-06T15:47:32;4.60;99.90
2543;DHT22;1116;51.502;7.414;2024-01-06T15:50:02;4.60;99.90
2543;DHT22;1116;51.502;7.414;2024-01-06T15:52:34;4.50;99.90
2543;DHT22;1116;51.502;7.414;2024-01-06T15:55:05;4.60;99.90
2543;DHT22;1116;51.502;7.414;2024-01-06T15:57:38;4.60;99.90
2543;DHT22;1116;51.502;7.414;2024-01-06T16:00:13;4.50;99.90
2543;DHT22;1116;51.502;7.414;2024-01-06T16:02:44;4.50;99.90
2543;DHT22;1116;51.502;7.414;2024-01-06T16:05:14;4.50;99.90
2543;DHT22;1116;51.502;7.414;2024-01-06T16:07:44;4.50;99.90
2543;DHT22;1116;51.502;7.414;2024-01-06T16:10:14;4.50;99.90
2543;DHT22;1116;51.502;7.414;2024-01-06T16:12:44;4.50;99.90
2543;DHT22;1116;51.502;7.414;2024-01-06T16:15:16;4.40;99.90
2543;DHT22;1116;51.502;7.414;2024-01-06T16:17:47;4.80;99.90
2543;DHT22;1116;51.502;7.414;2024-01-06T16:20:17;4.40;99.90
2543;DHT22;1116;51.502;7.414;2024-01-06T16:22:47;4.40;99.90
2543;DHT22;1116;51.502;7.414;2024-01-06T16:25:20;4.50;99.90
2543;DHT22;1116;51.502;7.414;2024-01-06T16:27:50;4.50;99.90
2543;DHT22;1116;51.502;7.414;2024-01-06T16:30:23;4.50;99.90
2543;DHT22;1116;51.502;7.414;2024-01-06T16:32:52;4.60;99.90
2543;DHT22;1116;51.502;7.414;2024-01-06T16:35:23;4.60;99.90
2543;DHT22;1116;51.502;7.414;2024-01-06T16:37:52;4.40;99.90
2543;DHT22;1116;51.502;7.414;2024-01-06T16:40:29;4.40;99.90
2543;DHT22;1116;51.502;7.414;2024-01-06T16:42:59;4.40;99.90